Time;durP1;ratioP1;P1;durP2;ratioP2;P2;SDS_P1;SDS_P2;PMS_P1;PMS_P2;Temp;Humidity;BMP_temperature;BMP_pressure;BME280_temperature;BME280_humidity;BME280_pressure;Samples;Min_cycle;Max_cycle;Signal;HPM_P1;HPM_P2
2023/07/17 02:37:58;;;;;;;;;;;;;;;;;;;;;
2023/07/17 03:17:02;;;;;;;10.38;2.95;;;16.10;99.90;;;;;;6185487;23;20011;-75
2023/07/17 05:00:21;;;;;;;20.52;4.45;;;15.80;99.90;;;;;;6013749;23;20480;-74
2023/07/17 05:02:47;;;;;;;21.58;5.38;;;15.70;99.90;;;;;;6014268;23;20058;-74
2023/07/17 05:05:15;;;;;;;17.10;4.68;;;15.70;99.90;;;;;;6014231;23;20054;-74
2023/07/17 05:07:43;;;;;;;15.38;4.75;;;15.80;99.90;;;;;;6014132;23;20019;-74
2023/07/17 05:10:13;;;;;;;18.13;5.47;;;15.70;99.90;;;;;;6069257;23;20344;-74
2023/07/17 05:12:46;;;;;;;18.67;5.38;;;15.70;99.90;;;;;;6095385;23;20029;-74
2023/07/17 05:15:20;;;;;;;;;;;15.70;99.90;;;;;;6071759;23;20053;-74
2023/07/17 05:18:07;;;;;;;21.27;4.88;;;15.60;99.90;;;;;;6059070;23;20246;-74
2023/07/17 05:21:13;;;;;;;10.50;3.63;;;15.60;99.90;;;;;;6063948;23;20023;-74
2023/07/17 05:24:19;;;;;;;12.73;3.88;;;15.50;99.90;;;;;;6071234;23;20033;-74
2023/07/17 05:27:28;;;;;;;14.57;4.22;;;15.50;99.90;;;;;;6084203;23;20029;-75
2023/07/17 07:05:18;;;;;;;14.30;4.70;;;17.10;99.90;;;;;;6010094;23;20027;-74
2023/07/17 07:12:28;;;;;;;14.82;4.53;;;17.30;99.90;;;;;;5926157;24;20502;-75
2023/07/17 07:15:27;;;;;;;14.65;4.40;;;17.60;99.90;;;;;;5923723;24;20092;-75
2023/07/17 07:23:27;;;;;;;14.65;4.20;;;18.30;99.90;;;;;;6262645;22;20344;-77
2023/07/17 07:25:55;;;;;;;12.88;4.60;;;18.30;99.90;;;;;;6251054;22;20030;-74
2023/07/17 07:28:21;;;;;;;15.98;4.30;;;18.30;99.90;;;;;;6251041;22;20019;-75
2023/07/17 07:30:48;;;;;;;13.50;4.55;;;18.20;99.90;;;;;;6251486;22;20018;-75
2023/07/17 07:33:16;;;;;;;11.15;4.05;;;18.20;99.90;;;;;;6246087;22;20058;-75
2023/07/17 07:35:45;;;;;;;12.05;3.70;;;18.20;99.90;;;;;;6250935;22;20110;-75
2023/07/17 07:38:11;;;;;;;12.13;4.05;;;18.00;99.90;;;;;;6278431;22;20083;-76
2023/07/17 07:40:37;;;;;;;14.57;4.30;;;18.10;99.90;;;;;;6251037;22;20050;-76
2023/07/17 07:43:02;;;;;;;14.18;4.10;;;18.10;99.90;;;;;;6250898;22;20108;-76
2023/07/17 07:45:28;;;;;;;12.15;3.67;;;18.00;99.90;;;;;;6277995;22;20020;-75
2023/07/17 07:47:56;;;;;;;13.00;3.92;;;17.80;99.90;;;;;;6250889;22;20095;-75
2023/07/17 07:50:24;;;;;;;13.75;4.10;;;17.70;99.90;;;;;;6249139;22;20062;-75
2023/07/17 07:52:50;;;;;;;13.85;3.80;;;18.00;99.90;;;;;;6251072;22;20015;-75
2023/07/17 07:55:15;;;;;;;12.77;3.65;;;18.20;99.90;;;;;;6250867;22;20431;-75
2023/07/17 07:57:41;;;;;;;13.63;3.97;;;18.40;99.90;;;;;;6278182;22;20019;-75
2023/07/17 08:00:10;;;;;;;7.45;3.58;;;18.60;99.90;;;;;;6251022;22;20027;-76
2023/07/17 08:02:39;;;;;;;11.95;3.38;;;18.90;99.90;;;;;;6251123;22;20023;-78
2023/07/17 08:05:09;;;;;;;10.52;3.35;;;19.00;99.90;;;;;;6250941;22;20027;-77
2023/07/17 08:07:35;;;;;;;11.85;3.80;;;19.10;99.90;;;;;;6250883;22;20028;-77
2023/07/17 08:10:04;;;;;;;10.27;3.28;;;19.30;99.90;;;;;;6250795;22;20462;-74
2023/07/17 08:12:42;;;;;;;8.35;3.95;;;19.50;99.90;;;;;;6251044;22;20016;-74
2023/07/17 08:15:13;;;;;;;14.75;3.72;;;19.60;99.90;;;;;;6277795;22;20439;-74
2023/07/17 08:17:42;;;;;;;11.98;3.33;;;19.50;99.90;;;;;;6250880;22;20050;-74
2023/07/17 08:20:08;;;;;;;12.77;3.17;;;19.20;99.90;;;;;;6246899;22;20022;-74
2023/07/17 08:22:37;;;;;;;13.70;3.63;;;19.20;99.90;;;;;;6250437;22;20042;-74
2023/07/17 08:25:17;;;;;;;11.27;3.40;;;19.00;99.90;;;;;;6250735;22;20077;-74
2023/07/17 08:27:43;;;;;;;8.75;3.45;;;19.30;99.90;;;;;;6278211;22;20016;-74
2023/07/17 08:30:18;;;;;;;9.32;3.28;;;19.40;99.90;;;;;;6277899;22;20500;-74
2023/07/17 08:32:46;;;;;;;12.98;3.33;;;19.60;99.90;;;;;;6277706;22;20396;-74
2023/07/17 08:35:12;;;;;;;9.10;2.97;;;19.70;99.90;;;;;;6250333;22;20023;-74
2023/07/17 08:37:38;;;;;;;9.48;3.30;;;19.80;99.90;;;;;;6277900;22;20012;-74
2023/07/17 08:48:49;;;;;;;8.05;2.65;;;19.70;99.90;;;;;;6269230;22;20391;-74
2023/07/17 09:06:04;;;;;;;9.57;2.88;;;19.20;99.90;;;;;;6246797;23;20459;-74
2023/07/17 09:20:05;;;;;;;9.48;3.17;;;19.10;99.90;;;;;;6246703;23;20081;-74
2023/07/17 09:22:31;;;;;;;9.77;3.20;;;19.40;99.90;;;;;;6219672;23;20020;-74
2023/07/17 09:24:56;;;;;;;9.88;3.20;;;19.60;99.90;;;;;;6219644;23;20016;-73
2023/07/17 09:27:22;;;;;;;9.82;3.05;;;19.50;99.90;;;;;;6219677;23;20031;-73
2023/07/17 09:29:51;;;;;;;10.82;3.00;;;19.40;99.90;;;;;;6246587;23;20016;-74
2023/07/17 09:32:18;;;;;;;10.80;3.42;;;19.50;99.90;;;;;;6246419;23;20070;-76
2023/07/17 09:35:14;;;;;;;6.95;2.30;;;19.70;99.90;;;;;;6219468;23;20515;-76
2023/07/17 09:37:43;;;;;;;6.85;2.75;;;20.00;99.90;;;;;;6246474;23;20404;-75
2023/07/17 09:40:11;;;;;;;10.88;3.08;;;20.00;99.90;;;;;;6219737;23;20019;-76
2023/07/17 09:42:39;;;;;;;13.05;2.70;;;19.90;99.90;;;;;;6219683;23;20024;-75
2023/07/17 09:45:05;;;;;;;9.35;2.50;;;20.10;99.90;;;;;;6219435;23;20063;-75
2023/07/17 09:47:44;;;;;;;8.93;2.67;;;20.20;99.90;;;;;;6219402;23;20023;-76
2023/07/17 11:39:13;;;;;;;6.70;2.53;;;22.40;99.90;;;;;;6186787;23;20380;-74
2023/07/17 11:41:48;;;;;;;8.45;2.53;;;22.30;99.90;;;;;;6160588;23;20020;-74
2023/07/17 13:10:52;;;;;;;8.52;3.97;;;22.00;99.90;;;;;;6216280;23;20071;-75
2023/07/17 13:17:18;;;;;;;10.32;3.60;;;21.90;99.90;;;;;;6068870;23;20025;-74
2023/07/17 13:23:13;;;;;;;9.15;3.50;;;21.90;99.90;;;;;;6242582;23;20020;-73
2023/07/17 13:25:41;;;;;;;11.05;3.60;;;21.90;99.90;;;;;;6219648;23;20028;-74
2023/07/17 13:28:07;;;;;;;9.88;2.85;;;21.90;99.90;;;;;;6219605;23;20383;-74
2023/07/17 13:30:32;;;;;;;8.77;3.13;;;21.70;99.90;;;;;;6219797;23;20020;-76
2023/07/17 13:32:58;;;;;;;9.95;3.00;;;21.70;99.90;;;;;;6219646;23;20016;-76
2023/07/17 13:35:24;;;;;;;8.15;3.17;;;21.40;99.90;;;;;;6219591;23;20030;-76
2023/07/17 13:37:53;;;;;;;10.75;3.15;;;21.50;99.90;;;;;;6219607;23;20392;-76
2023/07/17 13:40:22;;;;;;;9.85;2.80;;;21.50;99.90;;;;;;6219655;23;20514;-76
2023/07/17 13:42:50;;;;;;;8.70;2.72;;;21.30;99.90;;;;;;6243779;23;20016;-76
2023/07/17 13:45:16;;;;;;;10.63;2.95;;;21.20;99.90;;;;;;6219632;23;20027;-75
2023/07/17 13:47:45;;;;;;;9.55;3.20;;;21.30;99.90;;;;;;6219698;23;20073;-76
2023/07/17 13:50:10;;;;;;;8.38;2.97;;;21.40;99.90;;;;;;6246637;23;20027;-75
2023/07/17 13:52:36;;;;;;;11.55;3.08;;;21.40;99.90;;;;;;6219697;23;20016;-76
2023/07/17 13:55:02;;;;;;;8.57;3.05;;;21.60;99.90;;;;;;6219516;23;20016;-77
2023/07/17 14:07:52;;;;;;;8.27;3.25;;;20.70;99.90;;;;;;6152902;23;20501;-74
2023/07/17 14:10:42;;;;;;;10.90;3.05;;;20.70;99.90;;;;;;6127290;23;20473;-74
2023/07/17 14:17:51;;;;;;;6.55;2.40;;;20.80;99.90;;;;;;6272632;22;20015;-74
2023/07/17 14:20:29;;;;;;;7.30;2.72;;;20.60;99.90;;;;;;6233094;22;20023;-74
2023/07/17 14:23:03;;;;;;;8.65;2.90;;;20.70;99.90;;;;;;6249814;22;20466;-74
2023/07/17 14:25:44;;;;;;;9.48;2.70;;;20.80;99.90;;;;;;6249781;22;20043;-74
2023/07/17 14:32:44;;;;;;;7.18;2.72;;;20.50;99.90;;;;;;6248394;22;20015;-74
2023/07/17 14:39:30;;;;;;;7.85;3.00;;;20.20;99.90;;;;;;6008721;23;20401;-74
2023/07/17 14:42:25;;;;;;;10.05;3.30;;;20.10;99.90;;;;;;5985420;23;20503;-74
2023/07/17 14:46:02;;;;;;;10.82;2.83;;;20.10;99.90;;;;;;5832508;24;20025;-74
2023/07/17 14:49:01;;;;;;;11.68;3.67;;;20.00;99.90;;;;;;5836194;24;20105;-74
2023/07/17 14:51:49;;;;;;;8.65;3.33;;;20.10;99.90;;;;;;5902502;24;20025;-74
2023/07/17 14:54:24;;;;;;;10.15;3.35;;;20.00;99.90;;;;;;5902455;24;20031;-73
2023/07/17 14:56:58;;;;;;;7.88;2.88;;;20.10;99.90;;;;;;5984711;23;20024;-74
2023/07/17 15:00:27;;;;;;;8.73;2.65;;;20.30;99.90;;;;;;5985234;23;20024;-74
2023/07/17 15:04:21;;;;;;;10.20;3.20;;;20.40;99.90;;;;;;5956460;23;20031;-74
2023/07/17 15:06:47;;;;;;;11.95;3.17;;;20.60;99.90;;;;;;6032751;23;20102;-74
2023/07/17 15:09:54;;;;;;;12.48;4.18;;;20.50;99.90;;;;;;6041725;23;20027;-74
2023/07/17 15:12:28;;;;;;;9.75;3.45;;;20.40;99.90;;;;;;6047040;23;20022;-74
2023/07/17 15:14:59;;;;;;;8.85;2.88;;;20.30;99.90;;;;;;6091623;23;20036;-74
2023/07/17 15:17:51;;;;;;;12.40;3.17;;;20.30;99.90;;;;;;6167275;23;20337;-75
2023/07/17 15:20:54;;;;;;;8.32;3.00;;;20.40;99.90;;;;;;6242661;23;20023;-74
2023/07/17 15:27:09;;;;;;;6.72;2.60;;;20.60;99.90;;;;;;6159993;23;20055;-74
2023/07/17 15:30:22;;;;;;;9.15;2.95;;;20.70;99.90;;;;;;6159891;23;20036;-75
2023/07/17 15:36:30;;;;;;;10.38;3.13;;;20.60;99.90;;;;;;6148900;23;20030;-73
2023/07/17 15:39:42;;;;;;;;;;;;;;;;;;;;;
2023/07/17 15:42:38;;;;;;;8.60;2.10;;;20.50;99.90;;;;;;6139939;23;20080;-76
2023/07/17 15:49:39;;;;;;;6.43;2.17;;;20.40;99.90;;;;;;6010317;23;20027;-74
2023/07/17 16:00:08;;;;;;;8.43;2.92;;;20.20;99.90;;;;;;6128286;23;20022;-75
2023/07/17 16:34:51;;;;;;;9.07;3.45;;;19.90;99.90;;;;;;6179468;23;20021;-78
2023/07/17 16:42:55;;;;;;;7.53;2.20;;;20.00;99.90;;;;;;6186869;23;20476;-77
2023/07/17 16:46:33;;;;;;;9.10;2.67;;;19.80;99.90;;;;;;6093567;23;20029;-77
2023/07/17 17:13:35;;;;;;;9.35;3.10;;;19.70;99.90;;;;;;6197122;23;20100;-75
2023/07/17 17:16:46;;;;;;;9.32;2.90;;;19.60;99.90;;;;;;6202396;23;20460;-75
2023/07/17 17:19:39;;;;;;;10.18;3.30;;;19.60;99.90;;;;;;6147071;23;20019;-75
2023/07/17 17:26:01;;;;;;;9.68;3.05;;;19.60;99.90;;;;;;6216306;23;20105;-75
2023/07/17 17:29:09;;;;;;;6.28;2.97;;;19.50;99.90;;;;;;6189516;23;20032;-75
2023/07/17 17:32:03;;;;;;;9.98;2.72;;;19.60;99.90;;;;;;6146692;23;20024;-75
2023/07/17 17:35:15;;;;;;;10.93;3.10;;;19.50;99.90;;;;;;6216266;23;20519;-75
2023/07/17 17:37:55;;;;;;;11.27;3.42;;;19.40;99.90;;;;;;6163746;23;20028;-75
2023/07/17 17:44:11;;;;;;;10.57;2.88;;;19.20;99.90;;;;;;6189449;23;20021;-75
2023/07/17 17:46:43;;;;;;;9.93;3.25;;;19.00;99.90;;;;;;6178256;23;20055;-75
2023/07/17 17:49:24;;;;;;;9.20;2.72;;;18.90;99.90;;;;;;6190018;23;20013;-75
2023/07/17 17:52:22;;;;;;;9.63;3.03;;;18.90;99.90;;;;;;6189498;23;20048;-75
2023/07/17 17:55:11;;;;;;;11.32;3.17;;;18.90;99.90;;;;;;6184358;23;20380;-75
2023/07/17 17:57:49;;;;;;;9.30;3.08;;;19.00;99.90;;;;;;6189493;23;20096;-75
2023/07/17 18:00:35;;;;;;;9.60;3.15;;;19.00;99.90;;;;;;6189440;23;20085;-74
2023/07/17 18:03:06;;;;;;;11.27;3.08;;;19.00;99.90;;;;;;6189434;23;20027;-74
2023/07/17 18:05:58;;;;;;;8.73;2.88;;;19.00;99.90;;;;;;6189359;23;20009;-74
2023/07/17 18:08:27;;;;;;;7.23;2.53;;;18.90;99.90;;;;;;6216006;23;20394;-75
2023/07/17 18:11:46;;;;;;;9.40;3.20;;;19.00;99.90;;;;;;6189179;23;20275;-75
2023/07/17 18:17:43;;;;;;;8.02;3.13;;;18.90;99.90;;;;;;6162914;23;20024;-74
2023/07/17 18:20:18;;;;;;;6.45;2.97;;;18.80;99.90;;;;;;6159352;23;20043;-75
2023/07/17 18:23:03;;;;;;;7.60;2.50;;;18.90;99.90;;;;;;6159405;23;20025;-75
2023/07/17 18:32:51;;;;;;;8.85;3.03;;;18.80;99.90;;;;;;6162238;23;20032;-75
2023/07/17 18:35:17;;;;;;;9.82;3.28;;;18.70;99.90;;;;;;6188749;23;20077;-76
2023/07/17 18:37:43;;;;;;;10.13;3.05;;;18.70;99.90;;;;;;6189356;23;20028;-73
2023/07/17 18:40:15;;;;;;;9.77;3.58;;;18.70;99.90;;;;;;6189684;23;20013;-76
2023/07/17 18:42:41;;;;;;;10.60;3.57;;;18.60;99.90;;;;;;6189175;23;20025;-76
2023/07/17 18:45:07;;;;;;;8.80;3.42;;;18.60;99.90;;;;;;6189309;23;20020;-77
2023/07/17 18:47:32;;;;;;;10.80;3.60;;;18.50;99.90;;;;;;6189121;23;20025;-77
2023/07/17 18:49:58;;;;;;;12.45;3.85;;;18.50;99.90;;;;;;6189563;23;20093;-76
2023/07/17 18:52:24;;;;;;;11.95;3.70;;;18.50;99.90;;;;;;6216054;23;20363;-75
2023/07/17 18:54:49;;;;;;;11.80;4.00;;;18.40;99.90;;;;;;6215799;23;20024;-75
2023/07/17 18:57:15;;;;;;;13.27;3.60;;;18.40;99.90;;;;;;6189207;23;20440;-75
2023/07/17 18:59:43;;;;;;;8.48;3.47;;;18.30;99.90;;;;;;6190977;23;20322;-75
2023/07/17 19:02:09;;;;;;;10.52;3.20;;;18.30;99.90;;;;;;6217751;23;20456;-75
2023/07/17 19:04:35;;;;;;;12.13;3.33;;;18.30;99.90;;;;;;6191128;23;20017;-74
2023/07/17 19:07:03;;;;;;;10.70;3.88;;;18.20;99.90;;;;;;6191056;23;20017;-74
2023/07/17 19:09:29;;;;;;;9.43;3.50;;;18.20;99.90;;;;;;6190916;23;20056;-74
2023/07/17 19:11:55;;;;;;;9.45;2.97;;;18.10;99.90;;;;;;6190854;23;20017;-75
2023/07/17 19:14:20;;;;;;;8.73;2.90;;;18.00;99.90;;;;;;6217944;23;20452;-72
2023/07/17 19:16:46;;;;;;;12.63;3.50;;;18.10;99.90;;;;;;6190934;23;20013;-73
2023/07/17 19:19:13;;;;;;;10.93;3.65;;;18.00;99.90;;;;;;6190498;23;20013;-71
2023/07/17 19:21:43;;;;;;;11.73;3.67;;;18.00;99.90;;;;;;6189786;23;20332;-75
2023/07/17 19:24:09;;;;;;;8.48;3.08;;;18.00;99.90;;;;;;6190857;23;20017;-75
2023/07/17 19:26:34;;;;;;;13.55;4.00;;;18.00;99.90;;;;;;6217593;23;20017;-75
2023/07/17 19:29:00;;;;;;;11.25;4.07;;;17.90;99.90;;;;;;6190692;23;20021;-75
2023/07/17 19:31:26;;;;;;;8.85;3.97;;;17.90;99.90;;;;;;6217392;23;20090;-75
2023/07/17 19:33:58;;;;;;;10.88;3.20;;;17.80;99.90;;;;;;6190866;23;20024;-75
2023/07/17 19:36:24;;;;;;;11.40;3.85;;;17.70;99.90;;;;;;6190599;23;20107;-75
2023/07/17 19:38:50;;;;;;;10.55;3.90;;;17.70;99.90;;;;;;6190648;23;20098;-72
2023/07/17 19:41:19;;;;;;;11.55;3.95;;;17.60;99.90;;;;;;6190762;23;20024;-76
2023/07/17 19:43:44;;;;;;;14.20;3.95;;;17.60;99.90;;;;;;6190738;23;20020;-72
2023/07/17 19:46:11;;;;;;;15.13;4.20;;;17.60;99.90;;;;;;6217351;23;20013;-75
2023/07/17 19:48:38;;;;;;;11.18;4.00;;;17.50;99.90;;;;;;6190917;23;20020;-76
2023/07/17 19:51:03;;;;;;;11.82;3.70;;;17.50;99.90;;;;;;6190660;23;20021;-76
2023/07/17 19:53:29;;;;;;;11.07;3.88;;;17.40;99.90;;;;;;6217329;23;20036;-74
2023/07/17 19:55:56;;;;;;;9.57;3.55;;;17.40;99.90;;;;;;6191056;23;20424;-77
2023/07/17 19:58:26;;;;;;;8.85;3.13;;;17.30;99.90;;;;;;6217055;23;20031;-76
2023/07/17 20:00:52;;;;;;;9.90;3.00;;;17.30;99.90;;;;;;6190660;23;20023;-75
2023/07/17 20:03:18;;;;;;;12.95;3.90;;;17.30;99.90;;;;;;6190313;23;20032;-75
2023/07/17 20:05:43;;;;;;;13.48;3.70;;;17.20;99.90;;;;;;6190599;23;20432;-76
2023/07/17 20:08:09;;;;;;;10.60;3.35;;;17.20;99.90;;;;;;6190661;23;20344;-76
2023/07/17 20:10:35;;;;;;;10.48;3.20;;;17.20;99.90;;;;;;6189863;23;20025;-74
2023/07/17 20:13:01;;;;;;;9.20;3.40;;;17.10;99.90;;;;;;6190538;23;20012;-75
2023/07/17 20:15:26;;;;;;;7.32;2.92;;;17.10;99.90;;;;;;6190676;23;20023;-73
2023/07/17 20:17:55;;;;;;;10.13;3.33;;;17.10;99.90;;;;;;6190918;23;20507;-72
2023/07/17 20:20:22;;;;;;;10.75;3.22;;;17.00;99.90;;;;;;6190529;23;20083;-72
2023/07/17 20:22:47;;;;;;;12.07;2.63;;;16.90;99.90;;;;;;6190369;23;20062;-73
2023/07/17 20:25:13;;;;;;;8.98;2.90;;;16.90;99.90;;;;;;6190479;23;20020;-72
2023/07/17 20:27:39;;;;;;;12.00;3.22;;;16.80;99.90;;;;;;6190346;23;20017;-72
2023/07/17 20:30:13;;;;;;;11.15;3.55;;;16.80;99.90;;;;;;6190724;23;20020;-72
2023/07/17 20:32:42;;;;;;;11.63;3.85;;;16.70;99.90;;;;;;6216858;23;20534;-72
2023/07/17 20:35:09;;;;;;;11.25;3.63;;;16.70;99.90;;;;;;6190223;23;20067;-72
2023/07/17 20:37:34;;;;;;;9.85;3.20;;;16.60;99.90;;;;;;6190344;23;20024;-72
2023/07/17 20:40:01;;;;;;;11.73;3.00;;;16.60;99.90;;;;;;6190191;23;20024;-72
2023/07/17 20:45:11;;;;;;;8.85;3.08;;;16.50;99.90;;;;;;6190314;23;20055;-75
2023/07/17 20:47:36;;;;;;;10.50;3.63;;;16.40;99.90;;;;;;6190316;23;20012;-72
2023/07/17 20:50:03;;;;;;;12.95;2.90;;;16.40;99.90;;;;;;6190210;23;20020;-72
2023/07/17 20:52:28;;;;;;;6.07;2.30;;;16.40;99.90;;;;;;6190218;23;20336;-72
2023/07/17 20:54:56;;;;;;;11.10;2.90;;;16.30;99.90;;;;;;6190243;23;20447;-72
2023/07/17 20:57:22;;;;;;;10.90;2.88;;;16.20;99.90;;;;;;6190049;23;20055;-72
2023/07/17 20:59:47;;;;;;;7.50;2.53;;;16.30;99.90;;;;;;6189989;23;20020;-72
2023/07/17 21:02:13;;;;;;;9.73;2.80;;;16.20;99.90;;;;;;6217035;23;20067;-72
2023/07/17 21:04:39;;;;;;;6.93;2.50;;;16.20;99.90;;;;;;6190095;23;20021;-72
2023/07/17 21:07:05;;;;;;;9.40;2.75;;;16.20;99.90;;;;;;6190112;23;20013;-72
2023/07/17 21:09:32;;;;;;;9.70;2.70;;;16.10;99.90;;;;;;6189877;23;20444;-72
2023/07/17 21:11:57;;;;;;;8.43;2.20;;;16.10;99.90;;;;;;6189935;23;20017;-72
2023/07/17 21:14:26;;;;;;;9.82;2.58;;;16.10;99.90;;;;;;6190032;23;20059;-72
2023/07/17 21:16:52;;;;;;;7.93;2.15;;;16.00;99.90;;;;;;6216882;23;20059;-72
2023/07/17 21:19:17;;;;;;;8.85;2.65;;;16.00;99.90;;;;;;6217224;23;20013;-72
2023/07/17 21:21:43;;;;;;;10.52;2.70;;;16.00;99.90;;;;;;6189926;23;20025;-71
2023/07/17 21:24:09;;;;;;;10.80;2.75;;;15.90;99.90;;;;;;6189866;23;20024;-71
2023/07/17 21:26:34;;;;;;;8.23;2.80;;;15.90;99.90;;;;;;6189720;23;20012;-72
2023/07/17 21:29:14;;;;;;;8.07;2.70;;;15.80;99.90;;;;;;6216430;23;20044;-72
2023/07/17 21:31:40;;;;;;;8.57;2.78;;;15.80;99.90;;;;;;6216840;23;20087;-71
2023/07/17 21:34:07;;;;;;;10.90;2.80;;;15.80;99.90;;;;;;6216110;23;20044;-72
2023/07/17 21:36:32;;;;;;;8.10;2.72;;;15.70;99.90;;;;;;6189588;23;20025;-72
2023/07/17 21:38:58;;;;;;;10.15;3.15;;;15.70;99.90;;;;;;6216352;23;20024;-72
2023/07/17 21:41:25;;;;;;;9.00;3.10;;;15.70;99.90;;;;;;6216712;23;20434;-71
2023/07/17 21:43:51;;;;;;;9.48;2.88;;;15.70;99.90;;;;;;6189709;23;20024;-71
2023/07/17 21:46:16;;;;;;;8.73;2.55;;;15.70;99.90;;;;;;6189771;23;20335;-71
2023/07/17 21:48:42;;;;;;;10.07;2.58;;;15.70;99.90;;;;;;6189606;23;20016;-72
2023/07/17 21:51:08;;;;;;;7.40;2.67;;;15.70;99.90;;;;;;6189680;23;20020;-71
2023/07/17 21:53:33;;;;;;;8.20;2.83;;;15.70;99.90;;;;;;6216528;23;20412;-72
2023/07/17 21:55:59;;;;;;;7.10;2.88;;;15.70;99.90;;;;;;6189657;23;20349;-72
2023/07/17 21:58:25;;;;;;;8.73;2.80;;;15.70;99.90;;;;;;6189597;23;20432;-72
2023/07/17 22:00:51;;;;;;;8.15;3.03;;;15.60;99.90;;;;;;6189712;23;20016;-72
2023/07/17 22:03:17;;;;;;;7.60;2.70;;;15.60;99.90;;;;;;6189559;23;20575;-72
2023/07/17 22:05:43;;;;;;;11.40;3.50;;;15.60;99.90;;;;;;6216379;23;20013;-72
2023/07/17 22:08:09;;;;;;;7.38;2.88;;;15.60;99.90;;;;;;6189571;23;20362;-72
2023/07/17 22:10:35;;;;;;;11.27;3.33;;;15.60;99.90;;;;;;6216382;23;20019;-72
2023/07/17 22:13:00;;;;;;;8.98;3.00;;;15.50;99.90;;;;;;6189626;23;20348;-72
2023/07/17 22:15:26;;;;;;;11.45;3.25;;;15.60;99.90;;;;;;6189570;23;20062;-72
2023/07/17 22:17:52;;;;;;;8.82;3.35;;;15.50;99.90;;;;;;6216510;23;20079;-72
2023/07/17 22:20:17;;;;;;;13.05;3.25;;;15.50;99.90;;;;;;6189507;23;20020;-72
2023/07/17 22:22:46;;;;;;;8.63;2.90;;;15.50;99.90;;;;;;6189524;23;20020;-72
2023/07/17 22:25:13;;;;;;;13.52;3.70;;;15.50;99.90;;;;;;6189543;23;20309;-72
2023/07/17 22:27:39;;;;;;;6.10;2.72;;;15.40;99.90;;;;;;6189450;23;20026;-73
2023/07/17 22:30:06;;;;;;;9.68;3.15;;;15.40;99.90;;;;;;6189397;23;20016;-72
2023/07/17 22:32:31;;;;;;;10.13;3.10;;;15.40;99.90;;;;;;6189218;23;20144;-72
2023/07/17 22:34:57;;;;;;;15.50;4.00;;;15.30;99.90;;;;;;6215899;23;20059;-72
2023/07/17 22:37:25;;;;;;;10.27;3.25;;;15.30;99.90;;;;;;6189376;23;20317;-72
2023/07/17 22:39:52;;;;;;;11.63;3.45;;;15.30;99.90;;;;;;6189243;23;20020;-72
2023/07/17 22:42:20;;;;;;;12.05;3.40;;;15.30;99.90;;;;;;6189297;23;20436;-72
2023/07/17 22:44:51;;;;;;;12.70;3.15;;;15.30;99.90;;;;;;6189305;23;20020;-72
2023/07/17 22:47:23;;;;;;;11.68;3.15;;;15.30;99.90;;;;;;6189438;23;20044;-72
2023/07/17 22:49:49;;;;;;;8.38;3.33;;;15.30;99.90;;;;;;6189260;23;20020;-73
2023/07/17 22:52:20;;;;;;;13.10;3.53;;;15.30;99.90;;;;;;6189375;23;20012;-72
2023/07/17 22:54:49;;;;;;;11.27;3.72;;;15.20;99.90;;;;;;6216263;23;20021;-72
2023/07/17 22:57:15;;;;;;;15.57;3.70;;;15.20;99.90;;;;;;6189346;23;20017;-72
2023/07/17 22:59:41;;;;;;;12.35;3.78;;;15.20;99.90;;;;;;6189179;23;20023;-72
2023/07/17 23:02:07;;;;;;;9.43;3.53;;;15.20;99.90;;;;;;6189421;23;20522;-72
2023/07/17 23:04:33;;;;;;;10.68;3.28;;;15.20;99.90;;;;;;6215789;23;20020;-72
2023/07/17 23:06:58;;;;;;;11.88;4.05;;;15.20;99.90;;;;;;6189340;23;20499;-72
2023/07/17 23:09:24;;;;;;;12.60;4.43;;;15.20;99.90;;;;;;6189140;23;20027;-72
2023/07/17 23:11:50;;;;;;;12.18;3.72;;;15.20;99.90;;;;;;6189175;23;20040;-72
2023/07/17 23:14:16;;;;;;;10.45;4.47;;;15.10;99.90;;;;;;6189287;23;20040;-72
2023/07/17 23:16:41;;;;;;;9.30;4.28;;;15.10;99.90;;;;;;6189216;23;20336;-72
2023/07/17 23:19:07;;;;;;;10.73;4.00;;;15.10;99.90;;;;;;6189271;23;20384;-72
2023/07/17 23:21:33;;;;;;;13.68;4.00;;;15.10;99.90;;;;;;6189157;23;20024;-72
2023/07/17 23:23:58;;;;;;;15.43;4.47;;;15.10;99.90;;;;;;6189217;23;20013;-72
2023/07/17 23:26:24;;;;;;;14.45;4.70;;;15.10;99.90;;;;;;6189104;23;20032;-72
2023/07/17 23:28:50;;;;;;;13.40;5.10;;;15.10;99.90;;;;;;6215772;23;20436;-72
2023/07/17 23:31:18;;;;;;;13.30;4.75;;;15.10;99.90;;;;;;6216107;23;20095;-72
2023/07/17 23:33:45;;;;;;;11.95;3.45;;;15.10;99.90;;;;;;6188740;23;20028;-73
2023/07/17 23:36:15;;;;;;;11.00;4.43;;;15.00;99.90;;;;;;6189218;23;20027;-73
2023/07/17 23:38:41;;;;;;;14.13;4.35;;;15.10;99.90;;;;;;6189108;23;20017;-72
2023/07/17 23:41:06;;;;;;;15.18;4.40;;;15.00;99.90;;;;;;6189173;23;20031;-72
2023/07/17 23:43:33;;;;;;;10.88;4.50;;;15.00;99.90;;;;;;6189106;23;20012;-72
2023/07/17 23:45:59;;;;;;;11.23;4.10;;;15.00;99.90;;;;;;6190268;23;20024;-72
2023/07/17 23:48:26;;;;;;;12.20;4.35;;;15.00;99.90;;;;;;6217540;23;20020;-72
2023/07/17 23:50:52;;;;;;;15.48;5.15;;;15.00;99.90;;;;;;6190864;23;20031;-72
2023/07/17 23:53:18;;;;;;;13.52;4.50;;;15.00;99.90;;;;;;6190855;23;20016;-72
2023/07/17 23:55:44;;;;;;;15.65;4.47;;;14.90;99.90;;;;;;6190910;23;20020;-73
2023/07/17 23:58:11;;;;;;;14.18;4.45;;;15.00;99.90;;;;;;6190940;23;20344;-72
